sensor_id;sensor_type;location;lat;lon;timestamp;temperature;humidity
2639;DHT22;1329;51.384;7.122;2023-04-25T00:00:00;9.10;99.90
2639;DHT22;1329;51.384;7.122;2023-04-25T00:02:30;9.10;99.90
2639;DHT22;1329;51.384;7.122;2023-04-25T00:04:57;9.10;99.90
2639;DHT22;1329;51.384;7.122;2023-04-25T00:07:25;9.10;99.90
2639;DHT22;1329;51.384;7.122;2023-04-25T00:09:52;9.10;99.90
2639;DHT22;1329;51.384;7.122;2023-04-25T00:12:19;9.20;99.90
2639;DHT22;1329;51.384;7.122;2023-04-25T00:14:48;9.20;99.90
2639;DHT22;1329;51.384;7.122;2023-04-25T00:17:16;9.20;99.90
2639;DHT22;1329;51.384;7.122;2023-04-25T00:19:45;9.30;99.90
2639;DHT22;1329;51.384;7.122;2023-04-25T00:22:12;9.30;99.90
2639;DHT22;1329;51.384;7.122;2023-04-25T00:24:41;9.30;99.90
2639;DHT22;1329;51.384;7.122;2023-04-25T00:27:08;9.40;99.90
2639;DHT22;1329;51.384;7.122;2023-04-25T00:29:35;9.40;99.90
2639;DHT22;1329;51.384;7.122;2023-04-25T00:32:02;9.40;99.90
2639;DHT22;1329;51.384;7.122;2023-04-25T00:34:29;9.40;99.90
2639;DHT22;1329;51.384;7.122;2023-04-25T00:36:57;9.40;99.90
2639;DHT22;1329;51.384;7.122;2023-04-25T00:39:26;9.40;99.90
2639;DHT22;1329;51.384;7.122;2023-04-25T00:41:54;9.40;99.90
2639;DHT22;1329;51.384;7.122;2023-04-25T00:44:21;9.50;99.90
2639;DHT22;1329;51.384;7.122;2023-04-25T00:46:49;9.50;99.90
2639;DHT22;1329;51.384;7.122;2023-04-25T00:49:16;9.50;99.90
2639;DHT22;1329;51.384;7.122;2023-04-25T00:51:44;9.50;99.90
2639;DHT22;1329;51.384;7.122;2023-04-25T00:54:12;9.50;99.90
2639;DHT22;1329;51.384;7.122;2023-04-25T00:56:40;9.50;99.90
2639;DHT22;1329;51.384;7.122;2023-04-25T00:59:09;9.50;99.90
2639;DHT22;1329;51.384;7.122;2023-04-25T01:01:36;9.50;99.90
2639;DHT22;1329;51.384;7.122;2023-04-25T01:04:05;9.50;99.90
2639;DHT22;1329;51.384;7.122;2023-04-25T01:06:32;9.50;99.90
2639;DHT22;1329;51.384;7.122;2023-04-25T01:08:59;9.60;99.90
2639;DHT22;1329;51.384;7.122;2023-04-25T01:11:30;9.60;99.90
2639;DHT22;1329;51.384;7.122;2023-04-25T01:13:57;9.60;99.90
2639;DHT22;1329;51.384;7.122;2023-04-25T01:16:25;9.60;99.90
2639;DHT22;1329;51.384;7.122;2023-04-25T01:18:52;9.60;99.90
2639;DHT22;1329;51.384;7.122;2023-04-25T01:21:20;9.60;99.90
2639;DHT22;1329;51.384;7.122;2023-04-25T01:23:48;9.60;99.90
2639;DHT22;1329;51.384;7.122;2023-04-25T01:26:18;9.60;99.90
2639;DHT22;1329;51.384;7.122;2023-04-25T01:28:47;9.60;99.90
2639;DHT22;1329;51.384;7.122;2023-04-25T01:31:15;9.60;99.90
2639;DHT22;1329;51.384;7.122;2023-04-25T01:33:43;9.60;99.90
2639;DHT22;1329;51.384;7.122;2023-04-25T01:36:11;9.60;99.90
2639;DHT22;1329;51.384;7.122;2023-04-25T01:38:40;9.60;99.90
2639;DHT22;1329;51.384;7.122;2023-04-25T01:41:09;9.60;99.90
2639;DHT22;1329;51.384;7.122;2023-04-25T01:43:36;9.60;99.90
2639;DHT22;1329;51.384;7.122;2023-04-25T01:46:04;9.60;99.90
2639;DHT22;1329;51.384;7.122;2023-04-25T01:48:31;9.60;99.90
2639;DHT22;1329;51.384;7.122;2023-04-25T01:50:58;9.50;99.90
2639;DHT22;1329;51.384;7.122;2023-04-25T01:53:25;9.50;99.90
2639;DHT22;1329;51.384;7.122;2023-04-25T01:55:54;9.50;99.90
2639;DHT22;1329;51.384;7.122;2023-04-25T01:58:20;9.50;99.90
2639;DHT22;1329;51.384;7.122;2023-04-25T02:00:48;9.50;99.90
2639;DHT22;1329;51.384;7.122;2023-04-25T02:03:15;9.50;99.90
2639;DHT22;1329;51.384;7.122;2023-04-25T02:05:41;9.50;99.90
2639;DHT22;1329;51.384;7.122;2023-04-25T02:08:09;9.50;99.90
2639;DHT22;1329;51.384;7.122;2023-04-25T02:10:36;9.50;99.90
2639;DHT22;1329;51.384;7.122;2023-04-25T02:13:05;9.50;99.90
2639;DHT22;1329;51.384;7.122;2023-04-25T02:15:32;9.50;99.90
2639;DHT22;1329;51.384;7.122;2023-04-25T02:17:59;9.50;99.90
2639;DHT22;1329;51.384;7.122;2023-04-25T02:20:29;9.50;99.90
2639;DHT22;1329;51.384;7.122;2023-04-25T02:22:56;9.50;99.90
2639;DHT22;1329;51.384;7.122;2023-04-25T02:25:24;9.50;99.90
2639;DHT22;1329;51.384;7.122;2023-04-25T02:27:51;9.50;99.90
2639;DHT22;1329;51.384;7.122;2023-04-25T02:30:19;9.50;99.90
2639;DHT22;1329;51.384;7.122;2023-04-25T02:32:46;9.50;99.90
2639;DHT22;1329;51.384;7.122;2023-04-25T02:35:13;9.40;99.90
2639;DHT22;1329;51.384;7.122;2023-04-25T02:37:40;9.40;99.90
2639;DHT22;1329;51.384;7.122;2023-04-25T02:40:08;9.40;99.90
2639;DHT22;1329;51.384;7.122;2023-04-25T02:42:36;9.40;99.90
2639;DHT22;1329;51.384;7.122;2023-04-25T02:45:03;9.40;99.90
2639;DHT22;1329;51.384;7.122;2023-04-25T02:47:32;9.40;99.90
2639;DHT22;1329;51.384;7.122;2023-04-25T02:49:59;9.40;99.90
2639;DHT22;1329;51.384;7.122;2023-04-25T02:52:26;9.40;99.90
2639;DHT22;1329;51.384;7.122;2023-04-25T02:54:53;9.40;99.90
2639;DHT22;1329;51.384;7.122;2023-04-25T02:57:20;9.40;99.90
2639;DHT22;1329;51.384;7.122;2023-04-25T02:59:47;9.40;99.90
2639;DHT22;1329;51.384;7.122;2023-04-25T03:02:14;9.40;99.90
2639;DHT22;1329;51.384;7.122;2023-04-25T03:04:42;9.30;99.90
2639;DHT22;1329;51.384;7.122;2023-04-25T03:07:10;9.30;99.90
2639;DHT22;1329;51.384;7.122;2023-04-25T03:09:37;9.30;99.90
2639;DHT22;1329;51.384;7.122;2023-04-25T03:12:04;9.30;99.90
2639;DHT22;1329;51.384;7.122;2023-04-25T03:14:32;9.30;99.90
2639;DHT22;1329;51.384;7.122;2023-04-25T03:16:59;9.30;99.90
2639;DHT22;1329;51.384;7.122;2023-04-25T03:19:26;9.30;99.90
2639;DHT22;1329;51.384;7.122;2023-04-25T03:21:54;9.30;99.90
2639;DHT22;1329;51.384;7.122;2023-04-25T03:24:24;9.30;99.90
2639;DHT22;1329;51.384;7.122;2023-04-25T03:33:51;9.20;99.90
2639;DHT22;1329;51.384;7.122;2023-04-25T03:36:18;9.20;99.90
2639;DHT22;1329;51.384;7.122;2023-04-25T03:41:50;9.10;99.90
2639;DHT22;1329;51.384;7.122;2023-04-25T03:44:17;9.10;99.90
2639;DHT22;1329;51.384;7.122;2023-04-25T03:46:44;9.10;99.90
2639;DHT22;1329;51.384;7.122;2023-04-25T03:49:11;9.00;99.90
2639;DHT22;1329;51.384;7.122;2023-04-25T03:51:38;9.00;99.90
2639;DHT22;1329;51.384;7.122;2023-04-25T03:54:05;9.00;99.90
2639;DHT22;1329;51.384;7.122;2023-04-25T03:56:34;9.00;99.90
2639;DHT22;1329;51.384;7.122;2023-04-25T03:59:01;9.00;99.90
2639;DHT22;1329;51.384;7.122;2023-04-25T04:01:27;8.90;99.90
2639;DHT22;1329;51.384;7.122;2023-04-25T04:03:54;8.90;99.90
2639;DHT22;1329;51.384;7.122;2023-04-25T04:06:21;9.00;99.90
2639;DHT22;1329;51.384;7.122;2023-04-25T04:08:48;9.00;99.90
2639;DHT22;1329;51.384;7.122;2023-04-25T04:11:15;8.90;99.90
2639;DHT22;1329;51.384;7.122;2023-04-25T04:13:43;8.90;99.90
2639;DHT22;1329;51.384;7.122;2023-04-25T04:16:11;8.90;99.90
2639;DHT22;1329;51.384;7.122;2023-04-25T04:18:38;9.00;99.90
2639;DHT22;1329;51.384;7.122;2023-04-25T04:21:08;9.00;99.90
2639;DHT22;1329;51.384;7.122;2023-04-25T04:23:35;9.00;99.90
2639;DHT22;1329;51.384;7.122;2023-04-25T04:26:02;9.00;99.90
2639;DHT22;1329;51.384;7.122;2023-04-25T04:28:30;9.10;99.90
2639;DHT22;1329;51.384;7.122;2023-04-25T04:30:58;9.10;99.90
2639;DHT22;1329;51.384;7.122;2023-04-25T04:33:26;9.10;99.90
2639;DHT22;1329;51.384;7.122;2023-04-25T04:35:53;9.10;99.90
2639;DHT22;1329;51.384;7.122;2023-04-25T04:38:22;9.20;99.90
2639;DHT22;1329;51.384;7.122;2023-04-25T04:40:51;9.20;99.90
2639;DHT22;1329;51.384;7.122;2023-04-25T04:43:18;9.10;99.90
2639;DHT22;1329;51.384;7.122;2023-04-25T04:45:45;9.10;99.90
2639;DHT22;1329;51.384;7.122;2023-04-25T04:48:14;9.10;99.90
2639;DHT22;1329;51.384;7.122;2023-04-25T04:50:43;9.00;99.90
2639;DHT22;1329;51.384;7.122;2023-04-25T04:53:11;9.00;99.90
2639;DHT22;1329;51.384;7.122;2023-04-25T04:55:38;9.00;99.90
2639;DHT22;1329;51.384;7.122;2023-04-25T04:58:07;8.90;99.90
2639;DHT22;1329;51.384;7.122;2023-04-25T05:00:34;9.00;99.90
2639;DHT22;1329;51.384;7.122;2023-04-25T05:03:01;8.90;99.90
2639;DHT22;1329;51.384;7.122;2023-04-25T05:05:30;8.90;99.90
2639;DHT22;1329;51.384;7.122;2023-04-25T05:07:57;8.90;99.90
2639;DHT22;1329;51.384;7.122;2023-04-25T05:10:24;8.90;99.90
2639;DHT22;1329;51.384;7.122;2023-04-25T05:12:52;8.90;99.90
2639;DHT22;1329;51.384;7.122;2023-04-25T05:15:19;8.90;99.90
2639;DHT22;1329;51.384;7.122;2023-04-25T05:17:46;8.90;99.90
2639;DHT22;1329;51.384;7.122;2023-04-25T05:20:13;8.80;99.90
2639;DHT22;1329;51.384;7.122;2023-04-25T05:22:42;8.90;99.90
2639;DHT22;1329;51.384;7.122;2023-04-25T05:25:09;8.90;99.90
2639;DHT22;1329;51.384;7.122;2023-04-25T05:27:35;8.90;99.90
2639;DHT22;1329;51.384;7.122;2023-04-25T05:30:03;8.90;99.90
2639;DHT22;1329;51.384;7.122;2023-04-25T05:32:31;9.00;99.90
2639;DHT22;1329;51.384;7.122;2023-04-25T05:34:58;9.00;99.90
2639;DHT22;1329;51.384;7.122;2023-04-25T05:37:25;9.00;99.90
2639;DHT22;1329;51.384;7.122;2023-04-25T05:39:53;9.00;99.90
2639;DHT22;1329;51.384;7.122;2023-04-25T05:42:20;9.00;99.90
2639;DHT22;1329;51.384;7.122;2023-04-25T05:44:47;9.10;99.90
2639;DHT22;1329;51.384;7.122;2023-04-25T05:47:14;9.10;99.90
2639;DHT22;1329;51.384;7.122;2023-04-25T05:49:41;9.10;99.90
2639;DHT22;1329;51.384;7.122;2023-04-25T05:52:08;9.20;99.90
2639;DHT22;1329;51.384;7.122;2023-04-25T05:54:35;9.20;99.90
2639;DHT22;1329;51.384;7.122;2023-04-25T05:57:03;9.30;99.90
2639;DHT22;1329;51.384;7.122;2023-04-25T05:59:30;9.30;99.90
2639;DHT22;1329;51.384;7.122;2023-04-25T06:01:57;9.40;99.90
2639;DHT22;1329;51.384;7.122;2023-04-25T06:04:25;9.40;99.90
2639;DHT22;1329;51.384;7.122;2023-04-25T06:06:52;9.40;99.90
2639;DHT22;1329;51.384;7.122;2023-04-25T06:09:18;9.50;99.90
2639;DHT22;1329;51.384;7.122;2023-04-25T06:11:45;9.50;99.90
2639;DHT22;1329;51.384;7.122;2023-04-25T06:14:14;9.50;99.90
2639;DHT22;1329;51.384;7.122;2023-04-25T06:16:41;9.60;99.90
2639;DHT22;1329;51.384;7.122;2023-04-25T06:19:07;9.70;99.90
2639;DHT22;1329;51.384;7.122;2023-04-25T06:21:34;9.70;99.90
2639;DHT22;1329;51.384;7.122;2023-04-25T06:24:02;9.80;99.90
2639;DHT22;1329;51.384;7.122;2023-04-25T06:26:29;9.80;99.90
2639;DHT22;1329;51.384;7.122;2023-04-25T06:28:56;9.90;99.90
2639;DHT22;1329;51.384;7.122;2023-04-25T06:31:24;9.90;99.90
2639;DHT22;1329;51.384;7.122;2023-04-25T06:33:51;10.00;99.90
2639;DHT22;1329;51.384;7.122;2023-04-25T06:36:20;10.00;99.90
2639;DHT22;1329;51.384;7.122;2023-04-25T06:38:50;10.00;99.90
2639;DHT22;1329;51.384;7.122;2023-04-25T06:41:17;10.00;99.90
2639;DHT22;1329;51.384;7.122;2023-04-25T06:43:44;10.00;99.90
2639;DHT22;1329;51.384;7.122;2023-04-25T06:46:11;10.10;99.90
2639;DHT22;1329;51.384;7.122;2023-04-25T06:48:39;10.10;99.90
2639;DHT22;1329;51.384;7.122;2023-04-25T06:51:06;10.00;99.90
2639;DHT22;1329;51.384;7.122;2023-04-25T06:53:33;10.00;99.90
2639;DHT22;1329;51.384;7.122;2023-04-25T06:56:02;10.00;99.90
2639;DHT22;1329;51.384;7.122;2023-04-25T06:58:29;10.00;99.90
2639;DHT22;1329;51.384;7.122;2023-04-25T07:00:56;9.90;99.90
2639;DHT22;1329;51.384;7.122;2023-04-25T07:03:23;9.90;99.90
2639;DHT22;1329;51.384;7.122;2023-04-25T07:05:52;10.00;99.90
2639;DHT22;1329;51.384;7.122;2023-04-25T07:08:19;10.00;99.90
2639;DHT22;1329;51.384;7.122;2023-04-25T07:10:46;10.10;99.90
2639;DHT22;1329;51.384;7.122;2023-04-25T07:13:13;10.20;99.90
2639;DHT22;1329;51.384;7.122;2023-04-25T07:15:40;10.20;99.90
2639;DHT22;1329;51.384;7.122;2023-04-25T07:18:07;10.10;99.90
2639;DHT22;1329;51.384;7.122;2023-04-25T07:20:34;10.10;99.90
2639;DHT22;1329;51.384;7.122;2023-04-25T07:23:03;10.00;99.90
2639;DHT22;1329;51.384;7.122;2023-04-25T07:25:30;10.00;99.90
2639;DHT22;1329;51.384;7.122;2023-04-25T07:27:57;9.90;99.90
2639;DHT22;1329;51.384;7.122;2023-04-25T07:30:24;9.90;99.90
2639;DHT22;1329;51.384;7.122;2023-04-25T07:32:53;9.90;99.90
2639;DHT22;1329;51.384;7.122;2023-04-25T07:35:20;9.80;99.90
2639;DHT22;1329;51.384;7.122;2023-04-25T07:37:47;9.80;99.90
2639;DHT22;1329;51.384;7.122;2023-04-25T07:40:18;9.90;99.90
2639;DHT22;1329;51.384;7.122;2023-04-25T07:42:45;9.90;99.90
2639;DHT22;1329;51.384;7.122;2023-04-25T07:45:12;9.90;99.90
2639;DHT22;1329;51.384;7.122;2023-04-25T07:47:39;10.00;99.90
2639;DHT22;1329;51.384;7.122;2023-04-25T07:50:07;10.00;99.90
2639;DHT22;1329;51.384;7.122;2023-04-25T07:52:35;10.10;99.90
2639;DHT22;1329;51.384;7.122;2023-04-25T07:55:02;10.20;99.90
2639;DHT22;1329;51.384;7.122;2023-04-25T07:57:31;10.30;99.90
2639;DHT22;1329;51.384;7.122;2023-04-25T07:59:58;10.40;99.90
2639;DHT22;1329;51.384;7.122;2023-04-25T08:02:25;10.60;99.90
2639;DHT22;1329;51.384;7.122;2023-04-25T08:04:56;10.70;99.90
2639;DHT22;1329;51.384;7.122;2023-04-25T08:07:23;10.70;99.90
2639;DHT22;1329;51.384;7.122;2023-04-25T08:09:50;10.70;99.90
2639;DHT22;1329;51.384;7.122;2023-04-25T08:12:18;10.70;99.90
2639;DHT22;1329;51.384;7.122;2023-04-25T08:14:46;10.70;99.90
2639;DHT22;1329;51.384;7.122;2023-04-25T08:17:13;10.70;99.90
2639;DHT22;1329;51.384;7.122;2023-04-25T08:19:40;10.60;99.90
2639;DHT22;1329;51.384;7.122;2023-04-25T08:22:07;10.70;99.90
2639;DHT22;1329;51.384;7.122;2023-04-25T08:24:34;10.70;99.90
2639;DHT22;1329;51.384;7.122;2023-04-25T08:27:01;10.80;99.90
2639;DHT22;1329;51.384;7.122;2023-04-25T08:29:30;10.90;99.90
2639;DHT22;1329;51.384;7.122;2023-04-25T08:31:58;11.00;99.90
2639;DHT22;1329;51.384;7.122;2023-04-25T08:34:25;11.10;99.90
2639;DHT22;1329;51.384;7.122;2023-04-25T08:36:52;11.20;99.90
2639;DHT22;1329;51.384;7.122;2023-04-25T08:39:19;11.30;99.90
2639;DHT22;1329;51.384;7.122;2023-04-25T08:41:47;11.40;99.90
2639;DHT22;1329;51.384;7.122;2023-04-25T08:44:14;11.50;99.90
2639;DHT22;1329;51.384;7.122;2023-04-25T08:46:45;11.70;99.90
2639;DHT22;1329;51.384;7.122;2023-04-25T08:49:17;12.00;99.90
2639;DHT22;1329;51.384;7.122;2023-04-25T08:51:46;12.20;99.90
2639;DHT22;1329;51.384;7.122;2023-04-25T08:54:15;12.40;99.90
2639;DHT22;1329;51.384;7.122;2023-04-25T08:56:45;12.70;99.90
2639;DHT22;1329;51.384;7.122;2023-04-25T08:59:12;12.80;99.90
2639;DHT22;1329;51.384;7.122;2023-04-25T09:01:39;12.80;99.90
2639;DHT22;1329;51.384;7.122;2023-04-25T09:04:07;12.80;99.90
2639;DHT22;1329;51.384;7.122;2023-04-25T09:06:35;12.70;99.90
2639;DHT22;1329;51.384;7.122;2023-04-25T09:09:03;12.60;96.30
2639;DHT22;1329;51.384;7.122;2023-04-25T09:11:31;12.40;97.20
2639;DHT22;1329;51.384;7.122;2023-04-25T09:14:12;12.20;99.90
2639;DHT22;1329;51.384;7.122;2023-04-25T09:17:00;12.10;90.20
2639;DHT22;1329;51.384;7.122;2023-04-25T09:19:30;12.10;91.10
2639;DHT22;1329;51.384;7.122;2023-04-25T09:22:01;12.00;99.90
2639;DHT22;1329;51.384;7.122;2023-04-25T09:24:36;12.00;99.90
2639;DHT22;1329;51.384;7.122;2023-04-25T09:27:07;12.00;99.90
2639;DHT22;1329;51.384;7.122;2023-04-25T09:29:37;12.10;99.90
2639;DHT22;1329;51.384;7.122;2023-04-25T09:32:17;12.20;99.90
2639;DHT22;1329;51.384;7.122;2023-04-25T09:34:47;12.30;99.90
2639;DHT22;1329;51.384;7.122;2023-04-25T09:37:19;12.50;99.90
2639;DHT22;1329;51.384;7.122;2023-04-25T09:39:48;12.60;99.90
2639;DHT22;1329;51.384;7.122;2023-04-25T09:42:16;12.70;99.90
2639;DHT22;1329;51.384;7.122;2023-04-25T09:44:44;12.70;99.90
2639;DHT22;1329;51.384;7.122;2023-04-25T09:47:13;12.70;99.90
2639;DHT22;1329;51.384;7.122;2023-04-25T09:49:43;12.80;99.90
2639;DHT22;1329;51.384;7.122;2023-04-25T09:52:14;12.80;99.90
2639;DHT22;1329;51.384;7.122;2023-04-25T09:54:43;12.80;99.80
2639;DHT22;1329;51.384;7.122;2023-04-25T09:57:12;12.80;95.60
2639;DHT22;1329;51.384;7.122;2023-04-25T09:59:44;12.80;93.90
2639;DHT22;1329;51.384;7.122;2023-04-25T10:02:13;12.80;82.20
2639;DHT22;1329;51.384;7.122;2023-04-25T10:04:41;12.70;97.20
2639;DHT22;1329;51.384;7.122;2023-04-25T10:07:11;12.80;99.90
2639;DHT22;1329;51.384;7.122;2023-04-25T10:09:39;12.80;99.70
2639;DHT22;1329;51.384;7.122;2023-04-25T10:12:08;12.80;93.30
2639;DHT22;1329;51.384;7.122;2023-04-25T10:14:36;12.80;90.80
2639;DHT22;1329;51.384;7.122;2023-04-25T10:17:03;12.70;85.10
2639;DHT22;1329;51.384;7.122;2023-04-25T10:19:30;12.70;86.50
2639;DHT22;1329;51.384;7.122;2023-04-25T10:22:06;12.70;90.80
2639;DHT22;1329;51.384;7.122;2023-04-25T10:24:35;12.60;61.90
2639;DHT22;1329;51.384;7.122;2023-04-25T10:27:02;12.60;94.00
2639;DHT22;1329;51.384;7.122;2023-04-25T10:29:32;12.70;99.90
2639;DHT22;1329;51.384;7.122;2023-04-25T10:31:59;12.70;92.10
2639;DHT22;1329;51.384;7.122;2023-04-25T10:34:38;12.80;98.20
2639;DHT22;1329;51.384;7.122;2023-04-25T10:37:09;12.90;59.70
2639;DHT22;1329;51.384;7.122;2023-04-25T10:39:39;13.00;83.20
2639;DHT22;1329;51.384;7.122;2023-04-25T10:42:07;12.90;68.30
2639;DHT22;1329;51.384;7.122;2023-04-25T10:44:37;12.80;83.30
2639;DHT22;1329;51.384;7.122;2023-04-25T10:47:07;12.80;70.30
2639;DHT22;1329;51.384;7.122;2023-04-25T10:49:36;12.70;81.20
2639;DHT22;1329;51.384;7.122;2023-04-25T10:52:16;12.70;91.50
2639;DHT22;1329;51.384;7.122;2023-04-25T10:54:51;12.70;67.70
2639;DHT22;1329;51.384;7.122;2023-04-25T11:00:18;12.90;65.50
2639;DHT22;1329;51.384;7.122;2023-04-25T11:02:49;12.90;87.70
2639;DHT22;1329;51.384;7.122;2023-04-25T11:05:27;13.00;91.10
2639;DHT22;1329;51.384;7.122;2023-04-25T11:07:57;12.90;66.60
2639;DHT22;1329;51.384;7.122;2023-04-25T11:10:25;12.90;70.50
2639;DHT22;1329;51.384;7.122;2023-04-25T11:12:53;12.80;71.90
2639;DHT22;1329;51.384;7.122;2023-04-25T11:15:21;12.70;77.50
2639;DHT22;1329;51.384;7.122;2023-04-25T11:17:50;12.50;58.50
2639;DHT22;1329;51.384;7.122;2023-04-25T11:20:18;12.40;73.40
2639;DHT22;1329;51.384;7.122;2023-04-25T11:22:45;12.30;71.10
2639;DHT22;1329;51.384;7.122;2023-04-25T11:25:15;12.10;57.10
2639;DHT22;1329;51.384;7.122;2023-04-25T11:27:52;12.00;70.80
2639;DHT22;1329;51.384;7.122;2023-04-25T11:30:22;11.90;45.50
2639;DHT22;1329;51.384;7.122;2023-04-25T11:32:51;11.80;60.60
2639;DHT22;1329;51.384;7.122;2023-04-25T11:35:19;11.70;78.10
2639;DHT22;1329;51.384;7.122;2023-04-25T11:37:48;11.70;72.10
2639;DHT22;1329;51.384;7.122;2023-04-25T11:40:15;11.60;68.50
2639;DHT22;1329;51.384;7.122;2023-04-25T11:42:45;11.60;80.00
2639;DHT22;1329;51.384;7.122;2023-04-25T11:45:14;11.60;84.50
2639;DHT22;1329;51.384;7.122;2023-04-25T11:47:42;11.60;88.70
2639;DHT22;1329;51.384;7.122;2023-04-25T11:50:10;11.70;91.50
2639;DHT22;1329;51.384;7.122;2023-04-25T11:52:41;11.70;93.30
2639;DHT22;1329;51.384;7.122;2023-04-25T11:55:12;11.80;66.80
2639;DHT22;1329;51.384;7.122;2023-04-25T11:57:40;11.80;90.00
2639;DHT22;1329;51.384;7.122;2023-04-25T12:00:10;11.90;90.70
2639;DHT22;1329;51.384;7.122;2023-04-25T12:02:42;11.80;88.40
2639;DHT22;1329;51.384;7.122;2023-04-25T12:05:10;11.90;86.10
2639;DHT22;1329;51.384;7.122;2023-04-25T12:07:38;12.00;92.00
2639;DHT22;1329;51.384;7.122;2023-04-25T12:10:07;12.00;94.90
2639;DHT22;1329;51.384;7.122;2023-04-25T12:12:36;12.10;96.20
2639;DHT22;1329;51.384;7.122;2023-04-25T12:15:11;12.30;96.50
2639;DHT22;1329;51.384;7.122;2023-04-25T12:17:44;12.40;74.10
2639;DHT22;1329;51.384;7.122;2023-04-25T12:20:13;12.40;70.30
2639;DHT22;1329;51.384;7.122;2023-04-25T12:22:42;12.50;77.20
2639;DHT22;1329;51.384;7.122;2023-04-25T12:25:13;12.50;79.30
2639;DHT22;1329;51.384;7.122;2023-04-25T12:27:40;12.40;75.10
2639;DHT22;1329;51.384;7.122;2023-04-25T12:30:09;12.40;81.90
2639;DHT22;1329;51.384;7.122;2023-04-25T12:32:37;12.30;79.50
2639;DHT22;1329;51.384;7.122;2023-04-25T12:35:06;12.30;82.10
2639;DHT22;1329;51.384;7.122;2023-04-25T12:37:33;12.30;68.70
2639;DHT22;1329;51.384;7.122;2023-04-25T12:40:00;12.30;81.20
2639;DHT22;1329;51.384;7.122;2023-04-25T12:42:29;12.20;82.10
2639;DHT22;1329;51.384;7.122;2023-04-25T12:44:56;12.20;83.80
2639;DHT22;1329;51.384;7.122;2023-04-25T12:47:23;12.20;84.90
2639;DHT22;1329;51.384;7.122;2023-04-25T12:49:50;12.20;85.30
2639;DHT22;1329;51.384;7.122;2023-04-25T12:52:18;12.30;85.80
2639;DHT22;1329;51.384;7.122;2023-04-25T12:54:45;12.30;75.10
2639;DHT22;1329;51.384;7.122;2023-04-25T12:57:12;12.30;86.80
2639;DHT22;1329;51.384;7.122;2023-04-25T12:59:39;12.40;89.70
2639;DHT22;1329;51.384;7.122;2023-04-25T13:02:06;12.50;91.60
2639;DHT22;1329;51.384;7.122;2023-04-25T13:04:33;12.60;92.30
2639;DHT22;1329;51.384;7.122;2023-04-25T13:07:00;12.70;92.70
2639;DHT22;1329;51.384;7.122;2023-04-25T13:09:28;12.90;92.90
2639;DHT22;1329;51.384;7.122;2023-04-25T13:11:55;13.10;84.80
2639;DHT22;1329;51.384;7.122;2023-04-25T13:14:23;13.20;91.90
2639;DHT22;1329;51.384;7.122;2023-04-25T13:16:50;13.40;94.00
2639;DHT22;1329;51.384;7.122;2023-04-25T13:19:17;13.60;94.50
2639;DHT22;1329;51.384;7.122;2023-04-25T13:21:43;13.90;97.00
2639;DHT22;1329;51.384;7.122;2023-04-25T13:24:10;14.10;95.40
2639;DHT22;1329;51.384;7.122;2023-04-25T13:26:39;14.30;94.20
2639;DHT22;1329;51.384;7.122;2023-04-25T13:29:05;14.50;75.80
2639;DHT22;1329;51.384;7.122;2023-04-25T13:31:32;14.50;75.90
2639;DHT22;1329;51.384;7.122;2023-04-25T13:34:00;14.50;63.40
2639;DHT22;1329;51.384;7.122;2023-04-25T13:36:27;14.40;56.00
2639;DHT22;1329;51.384;7.122;2023-04-25T13:38:54;14.20;48.30
2639;DHT22;1329;51.384;7.122;2023-04-25T13:41:21;14.00;35.20
2639;DHT22;1329;51.384;7.122;2023-04-25T13:43:49;13.70;38.20
2639;DHT22;1329;51.384;7.122;2023-04-25T13:46:16;13.50;24.70
2639;DHT22;1329;51.384;7.122;2023-04-25T13:48:43;13.20;37.10
2639;DHT22;1329;51.384;7.122;2023-04-25T13:51:13;12.90;35.50
2639;DHT22;1329;51.384;7.122;2023-04-25T13:53:43;12.60;30.60
2639;DHT22;1329;51.384;7.122;2023-04-25T13:56:10;12.40;48.00
2639;DHT22;1329;51.384;7.122;2023-04-25T13:58:38;12.20;53.40
2639;DHT22;1329;51.384;7.122;2023-04-25T14:01:06;12.10;68.20
2639;DHT22;1329;51.384;7.122;2023-04-25T14:03:33;12.10;75.70
2639;DHT22;1329;51.384;7.122;2023-04-25T14:06:00;12.10;91.20
2639;DHT22;1329;51.384;7.122;2023-04-25T14:08:28;12.20;93.30
2639;DHT22;1329;51.384;7.122;2023-04-25T14:10:55;12.40;94.70
2639;DHT22;1329;51.384;7.122;2023-04-25T14:13:22;12.50;94.00
2639;DHT22;1329;51.384;7.122;2023-04-25T14:15:50;12.70;93.90
2639;DHT22;1329;51.384;7.122;2023-04-25T14:18:18;12.80;94.30
2639;DHT22;1329;51.384;7.122;2023-04-25T14:20:46;13.00;90.60
2639;DHT22;1329;51.384;7.122;2023-04-25T14:23:13;13.10;95.40
2639;DHT22;1329;51.384;7.122;2023-04-25T14:25:40;13.20;95.20
2639;DHT22;1329;51.384;7.122;2023-04-25T14:28:08;13.30;94.60
2639;DHT22;1329;51.384;7.122;2023-04-25T14:30:36;13.50;94.30
2639;DHT22;1329;51.384;7.122;2023-04-25T14:33:03;13.60;94.40
2639;DHT22;1329;51.384;7.122;2023-04-25T14:35:31;13.80;91.70
2639;DHT22;1329;51.384;7.122;2023-04-25T14:37:58;13.90;79.20
2639;DHT22;1329;51.384;7.122;2023-04-25T14:40:25;14.10;82.80
2639;DHT22;1329;51.384;7.122;2023-04-25T14:42:52;14.20;85.90
2639;DHT22;1329;51.384;7.122;2023-04-25T14:45:20;14.40;81.30
2639;DHT22;1329;51.384;7.122;2023-04-25T14:47:47;14.50;71.90
2639;DHT22;1329;51.384;7.122;2023-04-25T14:50:14;14.50;65.90
2639;DHT22;1329;51.384;7.122;2023-04-25T14:52:42;14.50;59.30
2639;DHT22;1329;51.384;7.122;2023-04-25T14:55:10;14.40;42.80
2639;DHT22;1329;51.384;7.122;2023-04-25T14:57:37;14.40;53.40
2639;DHT22;1329;51.384;7.122;2023-04-25T15:00:05;14.30;45.30
2639;DHT22;1329;51.384;7.122;2023-04-25T15:02:35;14.10;33.90
2639;DHT22;1329;51.384;7.122;2023-04-25T15:05:04;14.00;37.70
2639;DHT22;1329;51.384;7.122;2023-04-25T15:07:31;13.90;38.10
2639;DHT22;1329;51.384;7.122;2023-04-25T15:10:01;13.80;43.40
2639;DHT22;1329;51.384;7.122;2023-04-25T15:12:28;13.70;29.90
2639;DHT22;1329;51.384;7.122;2023-04-25T15:14:55;13.60;45.20
2639;DHT22;1329;51.384;7.122;2023-04-25T15:17:22;13.60;45.40
2639;DHT22;1329;51.384;7.122;2023-04-25T15:19:49;13.60;40.80
2639;DHT22;1329;51.384;7.122;2023-04-25T15:22:16;13.60;43.00
2639;DHT22;1329;51.384;7.122;2023-04-25T15:24:43;13.50;28.00
2639;DHT22;1329;51.384;7.122;2023-04-25T15:27:12;13.60;40.00
2639;DHT22;1329;51.384;7.122;2023-04-25T15:29:39;13.60;24.60
2639;DHT22;1329;51.384;7.122;2023-04-25T15:32:07;13.70;44.10
2639;DHT22;1329;51.384;7.122;2023-04-25T15:34:33;13.80;30.50
2639;DHT22;1329;51.384;7.122;2023-04-25T15:37:01;13.80;38.30
2639;DHT22;1329;51.384;7.122;2023-04-25T15:39:28;13.90;37.60
2639;DHT22;1329;51.384;7.122;2023-04-25T15:41:55;13.90;30.70
2639;DHT22;1329;51.384;7.122;2023-04-25T15:44:24;13.90;28.70
2639;DHT22;1329;51.384;7.122;2023-04-25T15:46:51;13.90;13.40
2639;DHT22;1329;51.384;7.122;2023-04-25T15:49:18;13.90;22.10
2639;DHT22;1329;51.384;7.122;2023-04-25T15:51:46;14.00;26.80
2639;DHT22;1329;51.384;7.122;2023-04-25T15:54:13;13.90;22.80
2639;DHT22;1329;51.384;7.122;2023-04-25T15:56:40;13.90;27.60
2639;DHT22;1329;51.384;7.122;2023-04-25T15:59:07;14.00;28.60
2639;DHT22;1329;51.384;7.122;2023-04-25T16:01:36;14.00;27.30
2639;DHT22;1329;51.384;7.122;2023-04-25T16:04:04;14.00;18.50
2639;DHT22;1329;51.384;7.122;2023-04-25T16:06:31;13.90;25.20
2639;DHT22;1329;51.384;7.122;2023-04-25T16:08:59;13.90;25.50
2639;DHT22;1329;51.384;7.122;2023-04-25T16:11:26;13.80;23.50
2639;DHT22;1329;51.384;7.122;2023-04-25T16:13:54;13.80;20.90
2639;DHT22;1329;51.384;7.122;2023-04-25T16:16:21;13.80;1.00
2639;DHT22;1329;51.384;7.122;2023-04-25T16:18:49;13.80;28.90
2639;DHT22;1329;51.384;7.122;2023-04-25T16:21:16;13.90;15.20
2639;DHT22;1329;51.384;7.122;2023-04-25T16:23:43;13.90;23.10
2639;DHT22;1329;51.384;7.122;2023-04-25T16:26:10;14.00;24.60